Sedalia, IN (46067)

08:23 PM EDT del 23 Settembre 2014 (GMT -0400)
Beard, IN | Change Station
CLOSE
Current Station
Stazione meteo personale
Location: Frankfort, IN
Altitudine: 857 ft
Stazioni meteo nelle vicinanze

Alt. 857 ft 40.36 °N, 86.45 °W | Updated 2 seconds ago

Sereno
Sereno
58.8 °F
Sembra 58.8 °F
N
0.0
Vento Variabile Vento da NNE
Gusts 0.7 mph

Oggi
Massima -- | Minima -- °F
--% Possibilità di precip.
Ieri
Massima -- | Minima -- °F
Precip. -- in
7:34 AM 7:41 PM
Luna calante, 0% visible
Pressione 30.30 in
Visibilità 10.0 miglia
Nuvole Sereno
Punto di rugiada 48 °F
Umidità 67%
Piovosità 0.00 in
Spessore del manto nevoso Non disponibile.
Raggi UV 0 fuori da 12
Polline 5.00 fuori da 12
Qualità dell'aria Non disponibile.
Flu Activity Non disponibile.
METAR KGGP 240015Z AUTO 10003KT 10SM CLR 12/08 A3030 RMK AO2

More Conditions Fewer Conditions

Pressione 30.30 in
Visibilità 10.0 miglia
Nuvole Sereno
Punto di rugiada 48 °F
Umidità 67%
Piovosità 0.00 in
Spessore del manto nevoso Non disponibile.
Raggi UV 0 fuori da 12
Polline 5.00 fuori da 12
Qualità dell'aria Non disponibile.
Flu Activity Non disponibile.
METAR KGGP 240015Z AUTO 10003KT 10SM CLR 12/08 A3030 RMK AO2

More Conditions Fewer Conditions

10-Day Weather Forecast

Almanac

Astronomia

Sep. 23, 2014 Alba Tramonto
Ora attuale 07:34 EDT 19:41 EDT
Crepuscolo civile 07:07 EDT 20:08 EDT
Crepuscolo nautico 06:35 EDT 20:40 EDT
Crepuscolo astronomico 06:03 EDT 21:12 EDT
Luna 06:58 EDT (9/23) 19:20 EDT (9/23)
Estensione della luce visibile 13h 01m
Lunghezza del giorno
12h 06m
Tomorrow will be 2m 38s shorter.
Luna calante, 0% of the Moon is Illuminated
Oggi
Luna calante
Set 24
Nuovo
Ott 1
Primo quarto
Ott 8
Luna piena
Ott 15
Ultimo quarto

Gli estremi di oggi

State Highs State Lows

Community

WunderPhotos

Upload Photos

1,755,828 foto caricate!

WunderBlogs® & News

Nearby

Profondità neve

Stazione Profondità Altitudine
Non sono state evidenziate nuove nevicate

Attività sismica

Città  Distanza Mag. Data & Ora
Non sono state riportate attività sismiche nelle vicinanze.
Minimo Magnitudo Mostrato è 2.5.

Temperature delle acque costiere

Località Temperatura
Nessun dato dalle stazioni

Stazioni meteo nelle vicinanze